Time;durP1;ratioP1;P1;durP2;ratioP2;P2;SDS_P1;SDS_P2;PMS_P1;PMS_P2;Temp;Humidity;BMP_temperature;BMP_pressure;BME280_temperature;BME280_humidity;BME280_pressure;Samples;Min_cycle;Max_cycle;Signal;HPM_P1;HPM_P2
2022/06/04 00:02:05;;;;;;;3.15;1.00;;;;;;;27.25;36.10;101041.38;5104014;28;20028;-45
2022/06/04 00:04:34;;;;;;;1.50;1.02;;;;;;;27.17;36.23;101025.56;5102421;28;20317;-45
2022/06/04 00:07:02;;;;;;;2.97;1.13;;;;;;;27.23;36.11;101037.84;5104823;28;20766;-46
2022/06/04 00:09:31;;;;;;;3.00;1.13;;;;;;;27.23;36.11;101036.09;5103384;28;20424;-44
2022/06/04 00:15:29;;;;;;;2.00;0.70;;;;;;;27.31;35.86;101044.00;5100064;28;20079;-45
2022/06/04 00:17:34;;;;;;;2.20;1.10;;;;;;;27.28;35.93;101041.38;5100714;28;20039;-45
2022/06/04 00:20:02;;;;;;;5.50;1.23;;;;;;;27.32;35.82;101045.75;5095761;28;20038;-43
2022/06/04 00:22:31;;;;;;;2.72;1.10;;;;;;;27.34;35.58;101032.59;5104390;28;20038;-44
2022/06/04 00:25:00;;;;;;;2.15;1.20;;;;;;;27.31;35.93;101038.72;5091502;28;20031;-45
2022/06/04 00:27:28;;;;;;;1.60;0.93;;;;;;;27.11;36.29;101031.72;5103316;28;20089;-44
2022/06/04 00:29:56;;;;;;;1.73;1.00;;;;;;;27.07;36.30;101019.41;5104499;28;20040;-45
2022/06/04 00:32:25;;;;;;;1.67;0.95;;;;;;;27.17;35.92;101025.56;5102847;28;20055;-43
2022/06/04 00:34:53;;;;;;;2.72;1.05;;;;;;;27.11;35.93;101026.44;5104332;27;20028;-44
2022/06/04 00:37:23;;;;;;;1.83;1.20;;;;;;;27.13;36.23;101029.97;5104514;28;20449;-47
2022/06/04 00:39:51;;;;;;;2.42;0.80;;;;;;;27.17;36.06;101025.56;5102585;28;20167;-44
2022/06/04 00:42:20;;;;;;;3.50;1.15;;;;;;;27.17;36.11;101020.31;5104102;28;20055;-44
2022/06/04 00:44:49;;;;;;;2.10;1.17;;;;;;;27.12;36.42;101022.03;5086152;28;20023;-45
2022/06/04 00:47:37;;;;;;;2.72;1.20;;;;;;;27.11;36.38;101018.56;5104506;28;20106;-43
2022/06/04 00:50:08;;;;;;;3.33;1.02;;;;;;;27.01;36.60;101023.81;5104030;28;20032;-43
2022/06/04 00:52:37;;;;;;;1.60;0.95;;;;;;;27.08;36.40;101021.19;5102746;28;20031;-44
2022/06/04 00:55:07;;;;;;;2.25;1.27;;;;;;;27.02;36.58;101018.53;5102592;28;20028;-44
2022/06/04 00:58:07;;;;;;;3.85;1.42;;;;;;;27.02;36.48;101028.19;5103974;28;20031;-43
2022/06/04 01:00:40;;;;;;;2.65;1.35;;;;;;;27.08;36.14;101021.19;5099033;28;20454;-43
2022/06/04 01:03:31;;;;;;;3.22;1.23;;;;;;;27.06;36.24;101008.88;5103778;28;20836;-44
2022/06/04 01:06:23;;;;;;;1.75;0.73;;;;;;;27.10;36.53;101014.16;5102488;28;20035;-44
2022/06/04 01:08:59;;;;;;;1.33;0.90;;;;;;;27.08;36.52;101004.47;5103928;28;20107;-44
2022/06/04 01:11:33;;;;;;;2.63;0.90;;;;;;;27.08;36.52;101007.13;5072424;28;20463;-46
2022/06/04 01:14:11;;;;;;;1.45;1.02;;;;;;;26.95;36.14;100993.09;5085585;28;20036;-47
2022/06/04 01:17:08;;;;;;;2.55;1.42;;;;;;;27.10;36.28;101013.25;5104387;28;20035;-43
2022/06/04 01:19:53;;;;;;;3.83;1.27;;;;;;;27.02;36.88;101010.63;5091681;28;20122;-44
2022/06/04 01:22:43;;;;;;;4.38;1.27;;;;;;;27.02;36.57;101013.25;5107635;28;20107;-44
2022/06/04 01:25:22;;;;;;;2.33;1.17;;;;;;;26.96;36.64;101014.13;5076597;28;20400;-44
2022/06/04 01:28:02;;;;;;;2.17;1.38;;;;;;;26.77;36.74;100994.78;5107613;28;20030;-44
2022/06/04 01:30:34;;;;;;;6.22;1.10;;;;;;;26.93;36.90;101026.44;5089753;28;20032;-46
2022/06/04 01:33:23;;;;;;;1.05;0.88;;;;;;;26.57;37.29;101001.75;5107659;28;20034;-44
2022/06/04 01:35:55;;;;;;;3.38;0.75;;;;;;;26.77;37.17;101022.84;5101105;28;20154;-43
2022/06/04 01:38:44;;;;;;;1.58;0.77;;;;;;;26.84;37.09;101028.16;5106106;28;20023;-44
2022/06/04 01:41:22;;;;;;;3.03;1.13;;;;;;;26.92;36.75;101030.78;5100354;28;20481;-43
2022/06/04 01:43:54;;;;;;;7.82;0.95;;;;;;;26.90;36.97;101027.28;5106305;28;20175;-43
2022/06/04 01:46:26;;;;;;;2.50;0.88;;;;;;;26.86;36.90;101019.38;5106367;28;20031;-45
2022/06/04 01:48:59;;;;;;;1.75;0.70;;;;;;;26.91;36.76;101015.00;5105714;28;20031;-45
2022/06/04 01:51:30;;;;;;;2.00;1.02;;;;;;;26.96;36.80;101016.78;5107223;28;20028;-44
2022/06/04 01:54:03;;;;;;;2.25;1.00;;;;;;;26.76;37.25;101003.56;5075764;28;20433;-43
2022/06/04 01:56:38;;;;;;;2.65;0.98;;;;;;;26.78;37.07;101008.81;5106143;28;20039;-44
2022/06/04 01:59:15;;;;;;;1.20;0.73;;;;;;;26.70;37.30;100998.28;5105942;28;20028;-47
2022/06/04 02:01:44;;;;;;;1.63;0.90;;;;;;;26.63;37.37;101007.03;5107166;28;20190;-44
2022/06/04 02:04:16;;;;;;;1.63;1.00;;;;;;;26.65;37.36;101013.16;5105567;28;20118;-43
2022/06/04 02:07:29;;;;;;;1.25;0.88;;;;;;;26.46;37.85;101012.25;5095644;28;20059;-45
2022/06/04 02:09:38;;;;;;;1.63;0.90;;;;;;;26.44;37.84;101006.09;5107178;28;20028;-44
2022/06/04 02:12:08;;;;;;;3.22;1.23;;;;;;;26.54;37.62;101021.06;5106693;27;20041;-44
2022/06/04 02:14:36;;;;;;;1.75;0.70;;;;;;;26.44;37.60;100987.69;5090600;28;20492;-44
2022/06/04 02:17:14;;;;;;;2.75;1.10;;;;;;;26.71;37.38;101018.44;5105540;28;20043;-47
2022/06/04 02:19:43;;;;;;;1.80;0.80;;;;;;;26.71;37.24;101010.56;5104017;28;20035;-44
2022/06/04 02:22:12;;;;;;;1.13;0.80;;;;;;;26.80;36.77;101015.00;5105514;28;20111;-48
2022/06/04 02:24:41;;;;;;;1.27;0.77;;;;;;;26.78;36.97;101012.34;5105351;28;20032;-44
2022/06/04 02:27:10;;;;;;;2.10;0.73;;;;;;;26.84;36.75;101020.25;5094944;28;20028;-44
2022/06/04 02:29:39;;;;;;;1.55;0.85;;;;;;;26.85;36.80;101018.53;5105256;28;20035;-44
2022/06/04 02:32:22;;;;;;;4.38;1.13;;;;;;;26.74;36.99;101010.56;5103827;28;20020;-45
2022/06/04 02:34:59;;;;;;;3.25;0.98;;;;;;;26.72;36.82;101006.19;5087223;28;20301;-44
2022/06/04 02:37:35;;;;;;;2.85;0.80;;;;;;;26.68;36.88;101011.44;5105100;28;20034;-44
2022/06/04 02:40:28;;;;;;;2.00;0.70;;;;;;;26.68;36.93;101002.66;5096491;28;20397;-44
2022/06/04 02:43:18;;;;;;;1.75;0.80;;;;;;;26.64;36.94;101004.41;5085875;28;20388;-48
2022/06/04 02:46:13;;;;;;;1.75;0.98;;;;;;;26.58;37.54;101014.03;5097242;28;20040;-44
2022/06/04 02:48:49;;;;;;;1.98;0.95;;;;;;;26.47;37.38;101019.25;5071304;28;20027;-43
2022/06/04 02:51:22;;;;;;;2.17;0.82;;;;;;;26.53;37.39;101020.16;5105069;28;20035;-44
2022/06/04 02:53:52;;;;;;;1.02;0.80;;;;;;;26.42;37.03;100995.56;5087112;28;20031;-44
2022/06/04 02:56:25;;;;;;;1.20;0.90;;;;;;;26.40;37.47;101010.47;5086803;28;20388;-44
2022/06/04 02:58:57;;;;;;;1.63;0.70;;;;;;;26.47;37.31;101007.00;5086467;28;20054;-44
2022/06/04 03:01:27;;;;;;;2.90;0.95;;;;;;;26.41;37.42;100993.81;5103587;28;20814;-44
2022/06/04 03:03:56;;;;;;;3.17;0.88;;;;;;;26.26;37.98;100978.84;5093687;28;20130;-45
2022/06/04 03:06:28;;;;;;;1.40;0.85;;;;;;;26.38;37.84;100986.81;5104800;28;20111;-44
2022/06/04 03:08:56;;;;;;;3.47;0.88;;;;;;;26.31;37.74;100989.41;5093858;28;20027;-44
2022/06/04 03:11:26;;;;;;;2.05;1.20;;;;;;;26.26;38.09;100991.13;5103258;28;20031;-44
2022/06/04 03:13:54;;;;;;;1.55;0.80;;;;;;;26.29;38.06;100991.16;4991642;28;3218448;-43
2022/06/04 03:16:23;;;;;;;3.22;1.00;;;;;;;26.24;38.08;100981.50;5105931;28;20054;-47
2022/06/04 03:18:52;;;;;;;3.10;1.15;;;;;;;26.18;38.51;100983.22;5105466;28;20510;-44
2022/06/04 03:21:20;;;;;;;2.58;0.90;;;;;;;26.16;38.33;100982.34;5103907;28;20077;-45
2022/06/04 03:23:49;;;;;;;2.85;1.25;;;;;;;26.16;37.94;100972.69;5105136;28;20054;-45
2022/06/04 03:26:17;;;;;;;2.05;1.23;;;;;;;26.23;38.25;100986.72;5105486;28;20039;-44
2022/06/04 03:28:46;;;;;;;1.95;0.93;;;;;;;26.27;37.95;100990.25;5105275;28;20029;-44
2022/06/04 03:31:14;;;;;;;3.20;1.25;;;;;;;26.17;38.22;100991.97;5105737;28;20086;-47
2022/06/04 03:33:43;;;;;;;3.13;1.60;;;;;;;26.17;38.48;100981.47;5105837;28;20031;-46
2022/06/04 03:36:11;;;;;;;4.07;1.90;;;;;;;25.92;39.07;100965.53;5105463;28;20036;-44
2022/06/04 03:38:40;;;;;;;1.77;1.27;;;;;;;25.94;39.06;100983.09;5105721;28;20024;-44
2022/06/04 03:41:09;;;;;;;4.45;1.73;;;;;;;25.99;39.00;100983.09;5104385;28;20027;-46
2022/06/04 03:43:37;;;;;;;5.28;1.50;;;;;;;26.00;38.83;100978.72;5105083;27;20053;-44
2022/06/04 03:46:06;;;;;;;3.97;2.00;;;;;;;25.96;39.39;100976.97;5080157;28;20358;-50
2022/06/04 03:48:35;;;;;;;2.13;1.40;;;;;;;25.73;39.41;100956.69;5103904;28;20037;-44
2022/06/04 03:51:03;;;;;;;5.05;1.85;;;;;;;25.82;39.50;100984.75;5105215;28;20034;-44
2022/06/04 03:53:32;;;;;;;4.55;2.05;;;;;;;25.87;39.45;100985.69;5105286;28;20460;-47
2022/06/04 03:56:00;;;;;;;3.15;1.77;;;;;;;26.00;39.37;100981.34;5105055;28;20032;-47
2022/06/04 03:58:30;;;;;;;3.95;1.90;;;;;;;25.96;39.58;100976.97;5103359;28;20538;-44
2022/06/04 04:00:59;;;;;;;4.65;2.05;;;;;;;25.85;39.53;100988.28;5104832;28;20278;-46
2022/06/04 04:03:27;;;;;;;2.58;1.80;;;;;;;25.73;39.48;100947.03;5104633;28;20024;-44
2022/06/04 04:05:56;;;;;;;4.00;2.40;;;;;;;25.85;39.57;100980.41;5104762;28;20030;-47
2022/06/04 04:08:26;;;;;;;4.20;2.83;;;;;;;25.59;40.16;100952.25;5104384;28;20036;-46
2022/06/04 04:10:55;;;;;;;4.72;2.20;;;;;;;25.79;39.71;100993.53;5104993;28;20036;-44
2022/06/04 04:13:24;;;;;;;11.02;1.90;;;;;;;25.88;39.40;100985.69;5104754;28;20058;-44
2022/06/04 04:15:52;;;;;;;3.92;2.30;;;;;;;25.90;39.71;100988.28;5104522;28;20058;-46
2022/06/04 04:18:20;;;;;;;3.83;2.40;;;;;;;25.82;39.59;100971.63;5104100;28;20029;-47
2022/06/04 04:20:48;;;;;;;3.65;2.03;;;;;;;25.92;39.49;100992.72;5104430;28;20127;-46
2022/06/04 04:23:17;;;;;;;2.60;1.85;;;;;;;25.97;39.40;100989.25;5104173;28;20024;-45
2022/06/04 04:25:45;;;;;;;5.13;2.53;;;;;;;25.91;39.33;100990.06;5104537;28;20027;-44
2022/06/04 04:28:13;;;;;;;3.72;2.22;;;;;;;25.85;39.54;100990.03;5104444;28;20093;-45
2022/06/04 04:30:42;;;;;;;10.52;2.60;;;;;;;25.85;39.48;100992.66;5104432;28;20028;-49
2022/06/04 04:33:10;;;;;;;6.97;3.10;;;;;;;25.83;39.59;100997.03;5104303;28;20026;-44
2022/06/04 04:35:38;;;;;;;5.65;2.60;;;;;;;25.79;39.57;101001.41;5104672;27;20576;-49
2022/06/04 04:38:07;;;;;;;6.82;2.15;;;;;;;25.78;39.93;100997.03;5104376;28;20031;-45
2022/06/04 04:40:36;;;;;;;7.50;3.63;;;;;;;25.73;40.10;101003.97;5104015;28;20042;-43
2022/06/04 04:43:05;;;;;;;4.82;2.80;;;;;;;25.69;39.97;101000.47;5104390;28;20401;-48
2022/06/04 04:45:33;;;;;;;7.43;2.88;;;;;;;25.73;39.95;100996.09;5103946;28;20183;-44
2022/06/04 04:48:02;;;;;;;4.93;2.60;;;;;;;25.78;39.60;101005.75;5104135;28;20561;-47
2022/06/04 04:50:35;;;;;;;4.35;2.40;;;;;;;25.78;39.60;100991.75;5104278;28;20039;-44
2022/06/04 04:53:11;;;;;;;8.02;3.78;;;;;;;25.78;39.77;100997.03;5102535;28;20532;-44
2022/06/04 04:55:45;;;;;;;5.32;2.97;;;;;;;25.65;40.09;100990.78;5104154;28;20031;-48
2022/06/04 04:58:14;;;;;;;4.43;2.60;;;;;;;25.68;39.70;100985.56;5104204;28;20517;-46
2022/06/04 05:00:44;;;;;;;4.53;2.38;;;;;;;25.77;39.54;100990.00;5103723;28;20035;-49
2022/06/04 05:03:13;;;;;;;5.15;2.85;;;;;;;25.77;39.65;100987.38;5103437;28;20051;-45
2022/06/04 05:05:41;;;;;;;3.50;1.95;;;;;;;25.71;39.52;100961.06;5103790;28;20023;-47
2022/06/04 05:08:10;;;;;;;6.05;2.30;;;;;;;25.85;39.10;100980.41;5103506;28;20099;-52
2022/06/04 05:10:39;;;;;;;4.22;2.15;;;;;;;25.85;39.41;100988.28;5103830;28;20298;-49
2022/06/04 05:13:08;;;;;;;3.80;2.08;;;;;;;25.90;38.93;100991.81;5103685;28;20071;-44
2022/06/04 05:15:36;;;;;;;2.72;2.00;;;;;;;25.92;39.04;100999.69;5103438;28;20104;-47
2022/06/04 05:18:05;;;;;;;4.35;2.40;;;;;;;25.89;39.09;100986.56;5102611;28;20063;-45
2022/06/04 05:20:34;;;;;;;2.92;2.10;;;;;;;25.98;38.92;100997.13;5103388;28;20031;-44
2022/06/04 05:23:02;;;;;;;3.85;2.10;;;;;;;26.07;38.97;101004.16;5102195;28;20043;-45
2022/06/04 05:25:31;;;;;;;3.97;2.22;;;;;;;25.99;38.76;100998.88;5103687;28;20023;-44
2022/06/04 05:28:00;;;;;;;4.15;2.40;;;;;;;26.04;38.98;100996.25;5103495;28;20199;-45
2022/06/04 05:30:28;;;;;;;3.25;1.98;;;;;;;26.05;38.87;101004.19;5102215;28;20446;-47
2022/06/04 05:32:57;;;;;;;4.82;2.13;;;;;;;26.07;38.78;101005.03;5085654;28;20034;-44
2022/06/04 05:35:25;;;;;;;4.50;2.42;;;;;;;26.06;38.94;101005.03;5103796;28;20036;-45
2022/06/04 05:37:54;;;;;;;3.90;2.28;;;;;;;26.02;38.72;101005.88;5103881;28;20114;-44
2022/06/04 05:40:23;;;;;;;7.38;2.53;;;;;;;26.04;39.04;101015.56;5103377;28;20110;-46
2022/06/04 05:42:52;;;;;;;4.82;2.20;;;;;;;25.97;39.28;101005.88;5103102;28;20020;-44
2022/06/04 05:45:20;;;;;;;4.28;2.45;;;;;;;25.99;39.34;101021.63;5103318;28;20023;-45
2022/06/04 05:47:49;;;;;;;5.70;2.92;;;;;;;25.93;39.54;101023.38;5103703;28;20035;-45
2022/06/04 05:50:18;;;;;;;4.38;2.30;;;;;;;26.00;39.53;101018.13;5103710;28;20024;-48
2022/06/04 05:52:46;;;;;;;4.75;2.53;;;;;;;26.03;39.20;101016.44;5103411;28;20081;-44
2022/06/04 05:55:15;;;;;;;4.55;2.10;;;;;;;25.98;39.37;101012.88;5103429;28;20028;-48
2022/06/04 05:57:43;;;;;;;4.15;1.98;;;;;;;26.04;39.49;101033.97;5103329;28;20027;-44
2022/06/04 06:00:12;;;;;;;2.78;1.88;;;;;;;26.12;39.43;101028.78;5103488;28;20128;-44
2022/06/04 06:02:40;;;;;;;3.83;2.17;;;;;;;26.15;39.33;101014.75;5103895;28;20119;-45
2022/06/04 06:05:09;;;;;;;6.22;2.25;;;;;;;26.20;39.12;101032.31;5088990;28;20038;-46
2022/06/04 06:07:38;;;;;;;4.18;2.25;;;;;;;26.25;39.29;101024.44;5106724;28;20042;-49
2022/06/04 06:10:06;;;;;;;6.18;1.90;;;;;;;26.19;39.40;101038.44;5107057;28;20473;-49
2022/06/04 06:12:35;;;;;;;3.63;2.35;;;;;;;26.27;39.11;101038.47;5106169;28;20038;-45
2022/06/04 06:15:03;;;;;;;5.47;1.95;;;;;;;26.34;38.88;101052.50;5107093;28;20045;-45
2022/06/04 06:17:32;;;;;;;6.70;2.63;;;;;;;26.23;39.30;101061.25;5105635;28;20492;-47
2022/06/04 06:20:01;;;;;;;4.80;2.00;;;;;;;26.23;39.44;101073.50;5105609;28;20062;-46
2022/06/04 06:22:29;;;;;;;6.00;2.88;;;;;;;26.21;39.85;101070.88;5106959;28;20055;-44
2022/06/04 06:24:58;;;;;;;4.95;2.20;;;;;;;26.14;39.64;101066.47;5106205;28;20026;-48
2022/06/04 06:27:26;;;;;;;5.60;2.17;;;;;;;26.21;39.69;101075.28;5105029;28;20038;-50
2022/06/04 06:29:55;;;;;;;4.53;2.40;;;;;;;26.27;39.47;101074.41;5106615;28;20864;-47
2022/06/04 06:32:24;;;;;;;4.00;2.22;;;;;;;26.25;39.48;101063.88;5106824;28;20040;-47
2022/06/04 06:34:53;;;;;;;4.85;2.75;;;;;;;26.24;39.84;101081.41;5106677;28;20038;-52
2022/06/04 06:37:21;;;;;;;4.47;2.53;;;;;;;26.29;39.63;101086.69;5106570;28;20031;-48
2022/06/04 06:39:50;;;;;;;5.68;2.30;;;;;;;26.21;39.79;101081.41;5106210;28;20043;-47
2022/06/04 06:42:18;;;;;;;4.75;2.55;;;;;;;26.25;40.06;101084.91;5106645;28;20027;-46
2022/06/04 06:44:47;;;;;;;4.47;3.40;;;;;;;26.16;40.67;101084.88;5106276;28;20034;-48
2022/06/04 06:47:16;;;;;;;11.32;4.00;;;;;;;26.17;40.82;101087.50;5106251;28;20274;-44
2022/06/04 06:49:44;;;;;;;5.70;3.80;;;;;;;26.16;40.97;101092.75;5106487;27;20389;-44
2022/06/04 06:52:13;;;;;;;11.15;4.32;;;;;;;26.14;41.38;101091.88;5106151;28;20026;-44
2022/06/04 06:54:42;;;;;;;10.48;3.90;;;;;;;26.06;41.74;101092.66;5106007;28;20487;-47
2022/06/04 06:57:11;;;;;;;9.43;4.28;;;;;;;26.07;41.50;101098.81;5105981;28;20028;-45
2022/06/04 06:59:43;;;;;;;9.00;4.28;;;;;;;26.13;42.07;101108.50;5105932;28;20489;-44
2022/06/04 07:02:12;;;;;;;8.43;4.53;;;;;;;26.09;41.87;101116.34;5106086;28;20064;-47
2022/06/04 07:04:41;;;;;;;7.63;4.30;;;;;;;26.09;41.94;101115.47;5105724;28;20046;-44
2022/06/04 07:07:09;;;;;;;7.55;4.43;;;;;;;26.05;42.06;101111.97;5105509;28;20503;-46
2022/06/04 07:09:40;;;;;;;10.10;3.97;;;;;;;26.10;41.74;101114.59;5105300;28;20096;-48
2022/06/04 07:12:10;;;;;;;9.30;4.18;;;;;;;26.20;41.44;101116.44;5104545;28;20110;-45
2022/06/04 07:14:40;;;;;;;7.05;4.47;;;;;;;26.20;41.83;101132.22;5104335;28;20505;-45
2022/06/04 07:17:08;;;;;;;8.50;4.05;;;;;;;26.11;42.04;101126.00;5105740;28;20477;-51
2022/06/04 07:19:37;;;;;;;7.68;3.78;;;;;;;26.09;42.31;101133.88;5104877;28;20110;-47
2022/06/04 07:22:05;;;;;;;11.20;5.68;;;;;;;26.02;42.54;101125.06;5080527;28;20437;-44
2022/06/04 07:24:35;;;;;;;7.53;4.18;;;;;;;26.08;42.74;101138.25;5105671;28;20419;-45
2022/06/04 07:27:04;;;;;;;7.28;4.30;;;;;;;26.08;42.62;101130.34;5105485;28;20023;-48
2022/06/04 07:29:32;;;;;;;12.35;4.05;;;;;;;26.17;42.05;101136.59;5105460;28;20035;-46
2022/06/04 07:32:01;;;;;;;8.63;4.18;;;;;;;26.20;42.16;101142.75;5094342;28;20031;-45
2022/06/04 07:34:29;;;;;;;6.85;4.13;;;;;;;26.18;42.33;101147.09;5105400;28;20023;-44
2022/06/04 07:36:58;;;;;;;8.02;3.65;;;;;;;26.23;42.01;101147.13;5105171;28;20072;-48
2022/06/04 07:39:27;;;;;;;5.30;3.88;;;;;;;26.18;42.13;101147.09;5105457;28;20168;-47
2022/06/04 07:41:56;;;;;;;6.40;4.45;;;;;;;26.09;42.41;101140.00;5105311;28;20209;-46
2022/06/04 07:44:26;;;;;;;6.22;3.63;;;;;;;26.10;42.52;101143.53;5105625;28;20019;-44
2022/06/04 07:46:56;;;;;;;8.13;4.22;;;;;;;26.08;42.27;101132.13;5105488;28;20111;-44
2022/06/04 07:49:24;;;;;;;7.00;3.20;;;;;;;26.11;42.05;101131.25;5105289;28;20305;-44
2022/06/04 07:51:54;;;;;;;7.50;3.40;;;;;;;26.16;42.13;101134.81;5104759;28;20084;-47
2022/06/04 07:54:23;;;;;;;6.13;3.72;;;;;;;26.16;41.74;101130.44;5105422;28;20035;-46
2022/06/04 07:56:51;;;;;;;4.68;3.13;;;;;;;26.14;41.84;101134.84;5105066;28;20042;-46
2022/06/04 07:59:20;;;;;;;8.65;4.32;;;;;;;26.02;42.29;101137.31;5104663;28;20526;-48
2022/06/04 08:01:48;;;;;;;3.42;3.00;;;;;;;26.08;41.96;101135.59;5104885;28;20290;-44
2022/06/04 08:04:16;;;;;;;4.82;3.45;;;;;;;26.07;42.09;101141.75;5104626;28;20028;-44
2022/06/04 08:06:45;;;;;;;7.35;3.45;;;;;;;26.14;42.03;101133.94;5104868;28;20131;-44
2022/06/04 08:09:13;;;;;;;5.47;3.53;;;;;;;26.14;42.14;101133.94;5104446;28;20046;-44
2022/06/04 08:11:42;;;;;;;5.88;3.53;;;;;;;26.18;41.59;101126.06;5104641;28;20100;-44
2022/06/04 08:14:16;;;;;;;5.40;3.40;;;;;;;26.22;41.81;101121.72;5104303;28;20532;-48
2022/06/04 08:16:47;;;;;;;4.90;3.45;;;;;;;26.22;41.64;101116.47;5104763;28;20405;-49
2022/06/04 08:19:16;;;;;;;7.53;4.00;;;;;;;26.28;41.54;101129.63;5103324;28;20618;-44
2022/06/04 08:21:45;;;;;;;9.38;4.35;;;;;;;26.28;41.56;101128.78;5104684;28;20444;-47
2022/06/04 08:24:15;;;;;;;7.00;4.45;;;;;;;26.23;41.84;101128.72;5104679;28;20369;-45
2022/06/04 08:26:46;;;;;;;7.63;3.72;;;;;;;26.19;41.90;101122.56;5102685;28;20030;-46
2022/06/04 08:29:15;;;;;;;6.07;4.03;;;;;;;26.15;41.96;101126.03;5104783;28;20028;-47
2022/06/04 08:31:45;;;;;;;8.35;4.10;;;;;;;26.09;42.31;101136.50;5104726;28;20055;-51
2022/06/04 08:34:13;;;;;;;8.77;4.15;;;;;;;26.08;42.11;101126.88;5104525;28;20537;-49
2022/06/04 08:36:42;;;;;;;7.35;3.88;;;;;;;26.07;42.18;101132.97;5104172;28;20027;-44
2022/06/04 08:39:11;;;;;;;8.25;3.97;;;;;;;26.06;42.21;101120.72;5103845;28;20492;-44
2022/06/04 08:42:14;;;;;;;7.28;3.83;;;;;;;26.18;41.71;101135.72;5104015;28;20041;-45
2022/06/04 08:44:54;;;;;;;9.52;3.97;;;;;;;26.24;42.10;101138.38;5094466;28;20036;-46
2022/06/04 08:47:31;;;;;;;7.85;3.80;;;;;;;26.31;41.77;101141.94;5102769;28;20465;-45
2022/06/04 08:50:11;;;;;;;7.43;3.80;;;;;;;26.37;42.00;101141.97;5103800;28;20031;-47
2022/06/04 08:52:42;;;;;;;10.50;4.28;;;;;;;26.37;42.02;101158.63;5102746;28;20442;-45
2022/06/04 08:58:36;;;;;;;8.30;3.83;;;;;;;26.47;41.73;101164.84;5095409;28;20054;-45
2022/06/04 09:01:12;;;;;;;4.75;3.40;;;;;;;26.53;41.79;101162.22;5099500;28;20043;-44
2022/06/04 09:04:00;;;;;;;8.63;3.70;;;;;;;26.65;41.61;101165.78;5104074;28;20034;-49
2022/06/04 09:06:46;;;;;;;11.80;4.03;;;;;;;26.64;41.99;101167.53;5100615;28;20043;-45
2022/06/04 09:09:18;;;;;;;9.48;4.07;;;;;;;26.63;41.93;101157.03;5102623;28;20362;-44
2022/06/04 09:12:24;;;;;;;9.43;3.70;;;;;;;26.70;41.28;101158.78;5103944;28;20388;-51
2022/06/04 09:15:17;;;;;;;12.90;4.20;;;;;;;26.82;41.20;101166.75;5100504;28;20493;-45
2022/06/04 09:17:50;;;;;;;12.55;5.00;;;;;;;26.82;41.07;101172.03;5099444;28;20082;-44
2022/06/04 09:20:38;;;;;;;7.78;4.63;;;;;;;26.61;41.39;101162.25;5102300;28;20035;-49
2022/06/04 09:23:12;;;;;;;12.02;5.10;;;;;;;26.53;41.25;101146.44;5097103;28;20035;-47
2022/06/04 09:25:47;;;;;;;9.30;4.50;;;;;;;26.71;41.14;101168.44;5104083;28;20030;-45
2022/06/04 09:28:38;;;;;;;11.63;4.65;;;;;;;26.67;41.42;101177.19;5102500;28;20038;-44
2022/06/04 09:31:09;;;;;;;9.23;4.40;;;;;;;26.63;41.22;101180.69;5103821;28;20472;-44
2022/06/04 09:33:56;;;;;;;12.13;3.67;;;;;;;26.47;41.67;101178.00;5104080;28;20031;-48
2022/06/04 09:36:31;;;;;;;7.03;3.55;;;;;;;26.54;41.86;101185.03;5103656;28;20443;-50
2022/06/04 09:39:03;;;;;;;8.32;3.83;;;;;;;26.54;41.55;101179.75;5105829;28;20028;-45
2022/06/04 09:41:34;;;;;;;10.40;3.80;;;;;;;26.54;41.83;101186.78;5107571;28;20032;-45
2022/06/04 09:44:21;;;;;;;15.68;3.20;;;;;;;26.57;41.49;101192.03;5107391;28;20024;-44
2022/06/04 09:46:58;;;;;;;11.35;3.90;;;;;;;26.72;41.37;101183.38;5107146;28;20031;-49
2022/06/04 09:49:28;;;;;;;12.50;4.10;;;;;;;26.85;41.23;101197.50;5107391;28;20096;-44
2022/06/04 09:51:58;;;;;;;10.43;3.70;;;;;;;26.90;41.37;101190.47;5107330;28;20114;-46
2022/06/04 09:54:30;;;;;;;9.25;3.45;;;;;;;27.00;41.02;101188.78;5106837;28;20028;-47
2022/06/04 09:57:03;;;;;;;10.68;3.55;;;;;;;26.89;41.03;101174.69;5106921;28;20035;-44
2022/06/04 09:59:33;;;;;;;10.40;3.72;;;;;;;26.80;41.50;101186.97;5105275;28;20485;-45
2022/06/04 10:02:06;;;;;;;15.77;4.80;;;;;;;26.75;41.46;101186.00;5106065;28;20031;-44
2022/06/04 10:04:38;;;;;;;10.05;3.40;;;;;;;26.52;41.76;101156.97;5107166;28;20040;-48
2022/06/04 10:07:09;;;;;;;8.98;3.03;;;;;;;26.68;42.01;101176.31;5106947;28;20490;-44
2022/06/04 10:10:02;;;;;;;8.85;2.95;;;;;;;26.80;42.05;101179.06;5106582;28;20023;-45
2022/06/04 10:15:30;;;;;;;15.02;3.90;;;;;;;26.83;41.83;101186.09;5103292;28;20035;-45
2022/06/04 10:18:07;;;;;;;13.07;3.50;;;;;;;26.75;42.06;101190.38;5106965;28;20031;-43
2022/06/04 10:20:35;;;;;;;10.88;3.50;;;;;;;26.78;42.35;101185.13;5106746;28;20036;-47
2022/06/04 10:23:12;;;;;;;11.07;2.92;;;;;;;26.83;42.23;101194.84;5105376;28;20026;-47
2022/06/04 10:25:50;;;;;;;13.15;3.50;;;;;;;26.90;41.83;101184.34;5105462;28;20051;-44
2022/06/04 10:28:28;;;;;;;14.57;3.90;;;;;;;27.03;42.04;101194.06;5088600;28;20362;-45
2022/06/04 10:31:12;;;;;;;10.43;3.40;;;;;;;27.12;41.82;101187.94;5106494;28;20032;-44
2022/06/04 10:34:02;;;;;;;9.43;3.78;;;;;;;27.11;42.01;101181.81;5105142;28;20127;-47
2022/06/04 10:36:50;;;;;;;14.35;4.13;;;;;;;27.28;41.95;101186.25;5102366;28;20567;-44
2022/06/04 10:39:38;;;;;;;9.50;3.22;;;;;;;27.25;41.92;101181.81;5104698;28;20114;-44
2022/06/04 10:42:35;;;;;;;13.82;3.60;;;;;;;27.14;42.25;101173.03;5106022;28;20038;-44
2022/06/04 10:45:22;;;;;;;11.40;3.38;;;;;;;27.22;42.61;101176.53;5106477;28;20096;-45
2022/06/04 10:47:56;;;;;;;11.45;3.88;;;;;;;27.15;42.66;101170.38;5103168;28;20123;-45
2022/06/04 10:50:32;;;;;;;10.02;3.95;;;;;;;27.29;42.42;101175.69;5105936;28;20118;-46
2022/06/04 10:53:30;;;;;;;13.75;4.03;;;;;;;27.24;42.17;101168.66;5104530;28;20085;-45
2022/06/04 10:56:02;;;;;;;9.77;3.83;;;;;;;27.35;41.88;101180.09;5106325;28;20541;-44
2022/06/04 10:58:38;;;;;;;12.35;4.57;;;;;;;27.10;42.59;101172.16;5104784;28;20047;-43
2022/06/04 11:01:12;;;;;;;15.73;4.57;;;;;;;27.13;42.61;101182.69;5106034;28;20043;-50
2022/06/04 11:03:55;;;;;;;14.98;3.75;;;;;;;27.17;42.54;101183.56;5106052;28;20035;-50
2022/06/04 11:06:27;;;;;;;8.98;3.53;;;;;;;27.30;42.32;101189.75;5104231;28;20499;-51
2022/06/04 11:09:01;;;;;;;12.75;3.35;;;;;;;27.29;42.43;101180.09;5105619;28;20084;-48
2022/06/04 11:11:36;;;;;;;13.00;4.30;;;;;;;27.34;42.51;101183.59;5105856;28;20043;-45
2022/06/04 11:14:11;;;;;;;12.95;4.15;;;;;;;27.35;41.94;101185.38;5105952;28;20052;-44
2022/06/04 11:16:45;;;;;;;11.52;3.58;;;;;;;27.33;41.99;101184.47;5105714;28;20500;-43
2022/06/04 11:19:20;;;;;;;14.63;4.05;;;;;;;27.36;41.91;101188.91;5105707;28;20031;-47
2022/06/04 11:22:03;;;;;;;11.48;4.22;;;;;;;27.35;42.03;101187.13;5103727;28;20067;-46
2022/06/04 11:24:44;;;;;;;10.63;3.92;;;;;;;27.42;41.76;101199.44;5105360;28;20491;-45
2022/06/04 11:27:31;;;;;;;10.80;4.00;;;;;;;27.48;41.66;101194.22;5105649;28;20115;-46
2022/06/04 11:30:01;;;;;;;15.82;5.07;;;;;;;27.28;42.29;101189.75;5105534;28;20077;-46
2022/06/04 11:32:30;;;;;;;11.35;4.85;;;;;;;27.14;42.54;101186.19;5105450;28;20031;-44
2022/06/04 11:35:12;;;;;;;16.58;4.78;;;;;;;27.10;42.71;101190.59;5105280;28;20068;-45
2022/06/04 11:38:04;;;;;;;14.27;4.78;;;;;;;27.18;42.25;101187.06;5105647;28;20023;-44
2022/06/04 11:40:46;;;;;;;12.23;4.88;;;;;;;27.08;43.13;101188.78;5084785;28;20043;-45
2022/06/04 11:43:52;;;;;;;11.23;4.95;;;;;;;27.13;42.72;101187.97;5103534;28;20051;-44
2022/06/04 11:46:43;;;;;;;14.23;4.78;;;;;;;27.03;43.54;101186.16;5100937;28;20041;-44
2022/06/04 11:49:40;;;;;;;12.82;5.22;;;;;;;26.82;44.19;101182.56;5105230;28;20027;-45
2022/06/04 11:52:28;;;;;;;11.65;4.45;;;;;;;26.80;44.26;101183.44;5102828;28;20040;-46
2022/06/04 11:55:35;;;;;;;12.73;4.30;;;;;;;26.97;43.50;101160.69;5095346;28;20040;-45
2022/06/04 11:58:31;;;;;;;13.68;4.57;;;;;;;26.95;44.21;101167.69;5087072;28;20096;-51
2022/06/04 12:01:04;;;;;;;10.90;4.70;;;;;;;27.10;43.53;101171.25;5104235;28;20027;-45
2022/06/04 12:03:50;;;;;;;12.88;4.82;;;;;;;27.10;43.67;101166.88;5103264;28;20114;-45